Time;durP1;ratioP1;P1;durP2;ratioP2;P2;SDS_P1;SDS_P2;PMS_P1;PMS_P2;Temp;Humidity;BMP_temperature;BMP_pressure;BME280_temperature;BME280_humidity;BME280_pressure;Samples;Min_cycle;Max_cycle;Signal;HPM_P1;HPM_P2
2022/03/10 00:00:56;;;;;;;;;;;3.70;99.90;;;;;;4978089;28;20479;-76
2022/03/10 00:03:22;;;;;;;;;;;3.60;99.90;;;;;;4979624;28;20998;-75
2022/03/10 00:05:48;;;;;;;;;;;3.60;99.90;;;;;;4974951;28;19932;-76
2022/03/10 00:08:13;;;;;;;;;;;3.50;99.90;;;;;;4965137;28;20468;-76
2022/03/10 00:10:39;;;;;;;;;;;3.40;99.90;;;;;;4959137;28;20386;-76
2022/03/10 00:13:05;;;;;;;;;;;3.50;99.90;;;;;;4964681;28;19981;-76
2022/03/10 00:15:30;;;;;;;;;;;3.50;99.90;;;;;;4993597;28;19928;-76
2022/03/10 00:17:56;;;;;;;;;;;3.30;99.90;;;;;;4964528;28;20342;-76
2022/03/10 00:20:22;;;;;;;;;;;3.30;99.90;;;;;;4959651;28;20604;-76
2022/03/10 00:22:49;;;;;;;;;;;3.20;99.90;;;;;;4978384;28;19932;-76
2022/03/10 00:25:14;;;;;;;;;;;3.30;99.90;;;;;;4974328;28;19928;-76
2022/03/10 00:27:40;;;;;;;;;;;3.30;99.90;;;;;;4977327;28;19928;-76
2022/03/10 00:30:07;;;;;;;;;;;3.20;99.90;;;;;;4960574;28;19928;-76
2022/03/10 00:32:32;;;;;;;;;;;3.30;99.90;;;;;;4957646;28;20453;-76
2022/03/10 00:34:58;;;;;;;;;;;3.40;99.90;;;;;;4977490;28;20431;-76
2022/03/10 00:37:24;;;;;;;;;;;3.40;99.90;;;;;;4961124;28;19932;-75
2022/03/10 00:39:49;;;;;;;;;;;3.40;99.90;;;;;;4946068;28;19982;-76
2022/03/10 00:42:15;;;;;;;;;;;3.40;99.90;;;;;;4956025;28;19932;-76
2022/03/10 00:44:40;;;;;;;;;;;3.40;99.90;;;;;;4971154;28;20411;-76
2022/03/10 00:47:06;;;;;;;;;;;3.30;99.90;;;;;;4979998;28;20127;-76
2022/03/10 00:49:32;;;;;;;;;;;3.20;99.90;;;;;;4962721;28;20015;-75
2022/03/10 00:51:57;;;;;;;;;;;3.40;99.90;;;;;;4962404;28;21730;-76
2022/03/10 00:54:23;;;;;;;;;;;3.40;99.90;;;;;;4958338;28;19979;-75
2022/03/10 00:56:49;;;;;;;;;;;3.50;99.90;;;;;;4976022;28;20550;-75
2022/03/10 00:59:15;;;;;;;;;;;3.60;99.90;;;;;;4975056;28;20802;-76
2022/03/10 01:01:40;;;;;;;;;;;3.60;99.90;;;;;;4978721;28;20140;-76
2022/03/10 01:04:06;;;;;;;;;;;3.60;99.90;;;;;;4976115;28;19935;-75
2022/03/10 01:06:31;;;;;;;;;;;3.60;99.90;;;;;;4961117;28;20647;-76
2022/03/10 01:08:57;;;;;;;;;;;3.60;99.90;;;;;;4959263;28;20420;-76
2022/03/10 01:11:23;;;;;;;;;;;3.70;99.90;;;;;;4981410;28;20000;-75
2022/03/10 01:13:48;;;;;;;;;;;3.60;99.90;;;;;;4959222;28;20394;-76
2022/03/10 01:16:14;;;;;;;;;;;3.60;99.90;;;;;;4961249;28;20417;-76
2022/03/10 01:18:39;;;;;;;;;;;3.60;99.90;;;;;;4980630;28;20722;-76
2022/03/10 01:21:05;;;;;;;;;;;3.60;99.90;;;;;;4979102;28;19939;-76
2022/03/10 01:23:31;;;;;;;;;;;3.40;99.90;;;;;;4975675;28;19955;-76
2022/03/10 01:25:56;;;;;;;;;;;3.40;99.90;;;;;;4959260;28;19924;-76
2022/03/10 01:28:22;;;;;;;;;;;3.50;99.90;;;;;;4960974;28;19928;-76
2022/03/10 01:30:48;;;;;;;;;;;3.50;99.90;;;;;;4963519;28;19978;-76
2022/03/10 01:33:13;;;;;;;;;;;3.60;99.90;;;;;;4957922;28;19932;-76
2022/03/10 01:35:39;;;;;;;;;;;3.50;99.90;;;;;;4956287;28;19937;-76
2022/03/10 01:38:05;;;;;;;;;;;3.50;99.90;;;;;;4964571;28;20122;-76
2022/03/10 01:40:30;;;;;;;;;;;3.50;99.90;;;;;;4977085;28;20570;-76
2022/03/10 01:42:56;;;;;;;;;;;3.50;99.90;;;;;;4963453;28;20364;-75
2022/03/10 01:45:22;;;;;;;;;;;3.40;99.90;;;;;;4978198;28;20389;-76
2022/03/10 01:47:47;;;;;;;;;;;3.50;99.90;;;;;;4959381;28;20430;-76
2022/03/10 01:50:14;;;;;;;;;;;3.40;99.90;;;;;;4952667;28;19942;-76
2022/03/10 01:52:40;;;;;;;;;;;3.40;99.90;;;;;;4958703;28;20484;-76
2022/03/10 01:55:06;;;;;;;;;;;3.40;99.90;;;;;;4959237;28;20461;-76
2022/03/10 01:57:32;;;;;;;;;;;3.30;99.90;;;;;;4961309;28;20668;-76
2022/03/10 01:59:58;;;;;;;;;;;3.30;99.90;;;;;;4946176;28;19985;-76
2022/03/10 02:02:24;;;;;;;;;;;3.40;99.90;;;;;;4962806;28;19985;-76
2022/03/10 02:04:49;;;;;;;;;;;3.20;99.90;;;;;;4981686;28;19990;-76
2022/03/10 02:10:18;;;;;;;;;;;3.20;99.90;;;;;;4972502;28;20209;-76
2022/03/10 02:12:51;;;;;;;;;;;3.20;99.90;;;;;;4977760;28;19981;-76
2022/03/10 02:18:02;;;;;;;;;;;3.10;99.90;;;;;;4965247;28;19928;-75
2022/03/10 02:20:28;;;;;;;;;;;3.00;99.90;;;;;;4958963;28;20415;-75
2022/03/10 02:22:54;;;;;;;;;;;3.10;99.90;;;;;;4963201;28;20046;-76
2022/03/10 02:25:21;;;;;;;;;;;3.00;99.90;;;;;;4979874;28;19936;-76
2022/03/10 02:27:48;;;;;;;;;;;3.00;99.90;;;;;;4961673;28;19928;-76
2022/03/10 02:30:14;;;;;;;;;;;2.90;99.90;;;;;;4955895;28;20897;-76
2022/03/10 02:32:39;;;;;;;;;;;3.00;99.90;;;;;;4957013;28;19932;-76
2022/03/10 02:35:05;;;;;;;;;;;3.00;99.90;;;;;;4960565;28;19929;-76
2022/03/10 02:37:31;;;;;;;;;;;2.90;99.90;;;;;;4913494;28;108206;-76
2022/03/10 02:39:56;;;;;;;;;;;2.70;99.90;;;;;;4954320;28;19929;-76
2022/03/10 02:42:22;;;;;;;;;;;2.80;99.90;;;;;;4936934;28;20428;-76
2022/03/10 02:44:49;;;;;;;;;;;2.70;99.90;;;;;;4941923;28;19924;-76
2022/03/10 02:47:15;;;;;;;;;;;2.70;99.90;;;;;;4928439;28;20493;-75
2022/03/10 02:49:41;;;;;;;;;;;2.80;99.90;;;;;;4940957;28;20714;-75
2022/03/10 02:52:07;;;;;;;;;;;2.80;99.90;;;;;;4940218;28;20457;-76
2022/03/10 02:54:33;;;;;;;;;;;2.70;99.90;;;;;;4932567;28;19982;-75
2022/03/10 02:56:59;;;;;;;;;;;2.70;99.90;;;;;;4938224;28;20877;-75
2022/03/10 02:59:25;;;;;;;;;;;2.60;99.90;;;;;;4936569;28;19929;-76
2022/03/10 03:01:51;;;;;;;;;;;2.70;99.90;;;;;;4956887;28;19933;-75
2022/03/10 03:04:17;;;;;;;;;;;2.60;99.90;;;;;;4957786;28;19929;-76
2022/03/10 03:06:42;;;;;;;;;;;2.60;99.90;;;;;;4928448;28;20852;-76
2022/03/10 03:09:08;;;;;;;;;;;2.60;99.90;;;;;;4937824;28;20474;-76
2022/03/10 03:11:34;;;;;;;;;;;2.50;99.90;;;;;;4961116;28;19933;-76
2022/03/10 03:14:01;;;;;;;;;;;2.50;99.90;;;;;;4941143;28;19928;-75
2022/03/10 03:16:27;;;;;;;;;;;2.50;99.90;;;;;;4936520;28;19929;-75
2022/03/10 03:18:53;;;;;;;;;;;2.30;99.90;;;;;;4953440;28;20143;-75
2022/03/10 03:21:19;;;;;;;;;;;2.30;99.90;;;;;;4939961;28;20334;-76
2022/03/10 03:23:45;;;;;;;;;;;2.20;99.90;;;;;;4953734;28;20726;-76
2022/03/10 03:26:11;;;;;;;;;;;2.30;99.90;;;;;;4940034;28;19929;-75
2022/03/10 03:28:37;;;;;;;;;;;2.40;99.90;;;;;;4921292;28;20385;-75
2022/03/10 03:31:03;;;;;;;;;;;2.50;99.90;;;;;;4935891;28;20816;-76
2022/03/10 03:33:29;;;;;;;;;;;2.50;99.90;;;;;;4937434;28;20029;-76
2022/03/10 03:35:55;;;;;;;;;;;2.70;99.90;;;;;;4950779;28;20410;-76
2022/03/10 03:38:21;;;;;;;;;;;2.80;99.90;;;;;;4919773;28;20121;-76
2022/03/10 03:40:46;;;;;;;;;;;2.70;99.90;;;;;;4955825;28;19932;-75
2022/03/10 03:43:12;;;;;;;;;;;2.80;99.90;;;;;;4935453;28;19939;-75
2022/03/10 03:45:37;;;;;;;;;;;2.70;99.90;;;;;;4958496;28;20691;-76
2022/03/10 03:48:03;;;;;;;;;;;2.80;99.90;;;;;;4921204;28;20534;-76
2022/03/10 03:50:29;;;;;;;;;;;2.70;99.90;;;;;;4956452;28;19939;-76
2022/03/10 03:52:55;;;;;;;;;;;2.80;99.90;;;;;;4936189;28;20750;-76
2022/03/10 03:55:20;;;;;;;;;;;2.80;99.90;;;;;;4936551;28;20302;-76
2022/03/10 03:57:46;;;;;;;;;;;2.70;99.90;;;;;;4939420;28;20738;-76
2022/03/10 04:00:12;;;;;;;;;;;2.70;99.90;;;;;;4939877;28;19929;-75
2022/03/10 04:02:37;;;;;;;;;;;2.70;99.90;;;;;;4929127;28;20310;-75
2022/03/10 04:05:04;;;;;;;;;;;2.60;99.90;;;;;;4922741;28;19929;-75
2022/03/10 04:07:29;;;;;;;;;;;2.60;99.90;;;;;;4956739;28;20648;-76
2022/03/10 04:09:55;;;;;;;;;;;2.50;99.90;;;;;;4955744;28;19933;-76
2022/03/10 04:12:21;;;;;;;;;;;2.60;99.90;;;;;;4957169;28;19928;-76
2022/03/10 04:14:47;;;;;;;;;;;2.70;99.90;;;;;;4954915;28;20040;-76
2022/03/10 04:17:12;;;;;;;;;;;2.70;99.90;;;;;;4953970;28;20305;-76
2022/03/10 04:19:38;;;;;;;;;;;2.60;99.90;;;;;;4940436;28;19936;-76
2022/03/10 04:22:04;;;;;;;;;;;2.70;99.90;;;;;;4958341;28;20292;-75
2022/03/10 04:24:30;;;;;;;;;;;2.60;99.90;;;;;;4958886;28;20480;-75
2022/03/10 04:26:55;;;;;;;;;;;2.70;99.90;;;;;;4933715;28;20542;-75
2022/03/10 04:29:21;;;;;;;;;;;2.60;99.90;;;;;;4939732;28;19936;-76
2022/03/10 04:31:47;;;;;;;;;;;2.70;99.90;;;;;;4919193;28;19982;-75
2022/03/10 04:34:12;;;;;;;;;;;2.50;99.90;;;;;;4955024;28;20377;-76
2022/03/10 04:36:38;;;;;;;;;;;2.60;99.90;;;;;;4957673;28;19937;-76
2022/03/10 04:39:04;;;;;;;;;;;2.50;99.90;;;;;;4944645;28;19933;-75
2022/03/10 04:41:30;;;;;;;;;;;2.60;99.90;;;;;;4960478;28;20557;-75
2022/03/10 04:43:55;;;;;;;;;;;2.70;99.90;;;;;;4925775;28;19933;-75
2022/03/10 04:46:22;;;;;;;;;;;2.60;99.90;;;;;;4956222;28;20426;-75
2022/03/10 04:48:48;;;;;;;;;;;2.60;99.90;;;;;;4936776;28;19935;-75
2022/03/10 04:51:14;;;;;;;;;;;2.80;99.90;;;;;;4928836;28;19933;-75
2022/03/10 04:53:39;;;;;;;;;;;2.50;99.90;;;;;;4943488;28;20015;-75
2022/03/10 04:56:05;;;;;;;;;;;2.60;99.90;;;;;;4955481;28;20354;-75
2022/03/10 04:58:31;;;;;;;;;;;2.60;99.90;;;;;;4941849;28;19933;-75
2022/03/10 05:00:56;;;;;;;;;;;2.60;99.90;;;;;;4922246;28;19928;-75
2022/03/10 05:03:22;;;;;;;;;;;2.70;99.90;;;;;;4960399;28;19929;-75
2022/03/10 05:05:47;;;;;;;;;;;2.80;99.90;;;;;;4940527;28;19933;-75
2022/03/10 05:08:13;;;;;;;;;;;2.70;99.90;;;;;;4957347;28;20651;-76
2022/03/10 05:10:39;;;;;;;;;;;2.70;99.90;;;;;;4955337;28;19929;-76
2022/03/10 05:13:05;;;;;;;;;;;2.70;99.90;;;;;;4962455;28;20869;-75
2022/03/10 05:15:31;;;;;;;;;;;2.50;99.90;;;;;;4937762;28;20807;-75
2022/03/10 05:17:57;;;;;;;;;;;2.50;99.90;;;;;;4940728;28;19929;-75
2022/03/10 05:20:25;;;;;;;;;;;2.50;99.90;;;;;;4923573;28;19925;-75
2022/03/10 05:22:51;;;;;;;;;;;2.50;99.90;;;;;;4940132;28;20398;-75
2022/03/10 05:25:18;;;;;;;;;;;2.50;99.90;;;;;;4936231;28;20855;-75
2022/03/10 05:27:44;;;;;;;;;;;2.50;99.90;;;;;;4935361;28;20230;-75
2022/03/10 05:30:10;;;;;;;;;;;2.50;99.90;;;;;;4944241;28;19968;-76
2022/03/10 05:32:36;;;;;;;;;;;2.50;99.90;;;;;;4939235;28;19925;-75
2022/03/10 05:35:03;;;;;;;;;;;2.50;99.90;;;;;;4954841;28;20416;-75
2022/03/10 05:37:29;;;;;;;;;;;2.50;99.90;;;;;;4936893;28;19924;-75
2022/03/10 05:39:55;;;;;;;;;;;2.50;99.90;;;;;;4956485;28;20124;-75
2022/03/10 05:42:21;;;;;;;;;;;2.50;99.90;;;;;;4953758;28;19924;-75
2022/03/10 05:44:47;;;;;;;;;;;2.40;99.90;;;;;;4954733;28;20785;-75
2022/03/10 05:47:13;;;;;;;;;;;2.30;99.90;;;;;;4938800;28;20744;-75
2022/03/10 05:49:38;;;;;;;;;;;2.30;99.90;;;;;;4919224;28;19936;-75
2022/03/10 05:52:05;;;;;;;;;;;2.10;99.90;;;;;;4933441;28;20367;-75
2022/03/10 05:54:33;;;;;;;;;;;2.20;99.90;;;;;;4917447;28;20832;-76
2022/03/10 05:56:59;;;;;;;;;;;2.20;99.90;;;;;;4955813;28;19974;-75
2022/03/10 05:59:24;;;;;;;;;;;2.30;99.90;;;;;;4929270;28;19925;-75
2022/03/10 06:01:50;;;;;;;;;;;2.30;99.90;;;;;;4957005;28;20834;-75
2022/03/10 06:04:16;;;;;;;;;;;2.50;99.90;;;;;;4933729;28;19940;-75
2022/03/10 06:06:44;;;;;;;;;;;2.50;99.90;;;;;;4920568;28;20814;-75
2022/03/10 06:09:10;;;;;;;;;;;2.40;99.90;;;;;;4956533;28;19925;-76
2022/03/10 06:11:36;;;;;;;;;;;2.30;99.90;;;;;;4939203;28;20306;-75
2022/03/10 06:14:01;;;;;;;;;;;2.40;99.90;;;;;;4957422;28;19929;-76
2022/03/10 06:16:27;;;;;;;;;;;2.40;99.90;;;;;;4954872;28;20327;-75
2022/03/10 06:18:53;;;;;;;;;;;2.50;99.90;;;;;;4955855;28;19932;-76
2022/03/10 06:21:21;;;;;;;;;;;2.50;99.90;;;;;;4941669;28;19929;-76
2022/03/10 06:23:47;;;;;;;;;;;2.60;99.90;;;;;;4934231;28;19929;-76
2022/03/10 06:26:13;;;;;;;;;;;2.50;99.90;;;;;;4955486;28;20287;-75
2022/03/10 06:28:38;;;;;;;;;;;2.40;99.90;;;;;;4940709;28;19987;-75
2022/03/10 06:31:04;;;;;;;;;;;2.50;99.90;;;;;;4954331;28;19944;-76
2022/03/10 06:33:30;;;;;;;;;;;2.70;99.90;;;;;;4954485;28;19924;-75
2022/03/10 06:35:56;;;;;;;;;;;2.70;99.90;;;;;;4938166;28;20362;-75
2022/03/10 06:38:22;;;;;;;;;;;2.80;99.90;;;;;;4957833;28;19932;-76
2022/03/10 06:40:48;;;;;;;;;;;2.80;99.90;;;;;;4940717;28;19932;-76
2022/03/10 06:43:15;;;;;;;;;;;2.90;99.90;;;;;;4956778;28;19940;-76
2022/03/10 06:45:40;;;;;;;;;;;2.90;99.90;;;;;;4933663;28;20300;-75
2022/03/10 06:48:06;;;;;;;;;;;2.90;99.90;;;;;;4940134;28;20361;-76
2022/03/10 06:50:32;;;;;;;;;;;3.00;99.90;;;;;;4938135;28;19933;-76
2022/03/10 06:52:58;;;;;;;;;;;3.00;99.90;;;;;;4958661;28;20293;-76
2022/03/10 06:55:24;;;;;;;;;;;3.10;99.90;;;;;;4954968;28;19967;-75
2022/03/10 06:57:50;;;;;;;;;;;3.10;99.90;;;;;;4934800;28;20335;-76
2022/03/10 07:00:16;;;;;;;;;;;3.20;99.90;;;;;;4935913;28;20055;-76
2022/03/10 07:02:41;;;;;;;;;;;3.30;99.90;;;;;;4961041;28;19931;-75
2022/03/10 07:05:08;;;;;;;;;;;3.60;99.90;;;;;;4937294;28;19935;-76
2022/03/10 07:07:34;;;;;;;;;;;3.60;99.90;;;;;;4939116;28;20359;-75
2022/03/10 07:10:00;;;;;;;;;;;3.80;99.90;;;;;;4972133;28;19929;-75
2022/03/10 07:12:28;;;;;;;;;;;3.80;99.90;;;;;;4944102;28;20006;-76
2022/03/10 07:14:54;;;;;;;;;;;3.90;99.90;;;;;;4948682;28;20313;-75
2022/03/10 07:17:20;;;;;;;;;;;4.00;99.90;;;;;;4953622;28;19929;-76
2022/03/10 07:19:48;;;;;;;;;;;4.00;99.90;;;;;;4953151;28;19954;-75
2022/03/10 07:22:18;;;;;;;;;;;4.10;99.90;;;;;;4959572;28;19933;-76
2022/03/10 07:24:44;;;;;;;;;;;4.20;99.90;;;;;;4957908;28;19990;-76
2022/03/10 07:27:10;;;;;;;;;;;4.20;99.90;;;;;;4939539;28;20373;-75
2022/03/10 07:29:35;;;;;;;;;;;4.40;99.90;;;;;;4953585;28;20421;-76
2022/03/10 07:32:01;;;;;;;;;;;4.50;99.90;;;;;;4943510;28;20282;-75
2022/03/10 07:34:27;;;;;;;;;;;4.50;99.90;;;;;;4958889;28;20288;-76
2022/03/10 07:36:53;;;;;;;;;;;4.50;99.90;;;;;;4938885;28;19979;-76
2022/03/10 07:39:19;;;;;;;;;;;4.70;99.90;;;;;;4940718;28;19929;-76
2022/03/10 07:41:44;;;;;;;;;;;5.00;99.90;;;;;;4931517;28;20276;-75
2022/03/10 07:44:10;;;;;;;;;;;5.10;99.90;;;;;;4939716;28;19975;-75
2022/03/10 07:46:36;;;;;;;;;;;5.50;99.90;;;;;;4940138;28;19932;-75
2022/03/10 07:49:02;;;;;;;;;;;5.50;99.90;;;;;;4960398;28;19928;-76
2022/03/10 07:51:28;;;;;;;;;;;5.70;99.90;;;;;;4942531;28;20370;-76
2022/03/10 07:53:53;;;;;;;;;;;6.00;99.90;;;;;;4969133;28;20777;-76
2022/03/10 07:56:19;;;;;;;;;;;6.20;99.90;;;;;;4967176;28;20267;-75
2022/03/10 07:58:45;;;;;;;;;;;6.30;99.90;;;;;;4957785;28;20295;-76
2022/03/10 08:01:11;;;;;;;;;;;6.50;99.80;;;;;;4961997;28;20998;-76
2022/03/10 08:03:38;;;;;;;;;;;6.60;99.90;;;;;;4937993;28;19933;-76
2022/03/10 08:06:04;;;;;;;;;;;6.80;99.90;;;;;;4960259;28;20309;-76
2022/03/10 08:08:29;;;;;;;;;;;6.70;99.90;;;;;;4929250;28;19936;-76
2022/03/10 08:10:55;;;;;;;;;;;7.10;99.90;;;;;;4954461;28;20022;-76
2022/03/10 08:13:25;;;;;;;;;;;7.20;99.90;;;;;;4959631;28;20718;-76
2022/03/10 08:15:51;;;;;;;;;;;7.20;99.90;;;;;;4927079;28;20401;-76
2022/03/10 08:18:17;;;;;;;;;;;7.60;99.90;;;;;;4955265;28;19932;-76
2022/03/10 08:20:42;;;;;;;;;;;7.70;99.90;;;;;;4940943;28;20436;-76
2022/03/10 08:23:09;;;;;;;;;;;7.80;99.90;;;;;;4942250;28;19929;-76
2022/03/10 08:25:36;;;;;;;;;;;8.10;99.90;;;;;;4936738;28;19955;-76
2022/03/10 08:28:03;;;;;;;;;;;8.10;99.90;;;;;;4942118;28;19933;-76
2022/03/10 08:30:28;;;;;;;;;;;8.40;99.90;;;;;;4960253;28;20850;-75
2022/03/10 08:32:54;;;;;;;;;;;8.60;99.90;;;;;;4940928;28;19964;-76
2022/03/10 08:35:20;;;;;;;;;;;8.70;99.90;;;;;;4958585;28;19929;-76
2022/03/10 08:37:45;;;;;;;;;;;8.70;99.90;;;;;;4942132;28;19968;-76
2022/03/10 08:40:15;;;;;;;;;;;8.60;98.50;;;;;;4940178;28;19928;-76
2022/03/10 08:42:42;;;;;;;;;;;8.20;88.70;;;;;;4957138;28;19939;-76
2022/03/10 08:45:08;;;;;;;;;;;8.70;99.90;;;;;;4939123;28;19959;-76
2022/03/10 08:47:34;;;;;;;;;;;8.90;98.60;;;;;;4941423;28;20466;-76
2022/03/10 08:49:59;;;;;;;;;;;9.00;98.80;;;;;;4925297;28;19928;-76
2022/03/10 08:52:25;;;;;;;;;;;9.30;93.50;;;;;;4940533;28;19928;-77
2022/03/10 08:54:51;;;;;;;;;;;9.50;94.90;;;;;;4939832;28;19929;-76
2022/03/10 08:57:17;;;;;;;;;;;8.90;82.00;;;;;;4956904;28;20379;-76
2022/03/10 08:59:42;;;;;;;;;;;9.10;91.60;;;;;;4944099;28;20846;-77
2022/03/10 09:02:08;;;;;;;;;;;9.60;77.00;;;;;;4940913;28;20190;-76
2022/03/10 09:04:34;;;;;;;;;;;9.80;87.10;;;;;;4933182;28;20489;-76
2022/03/10 09:06:59;;;;;;;;;;;10.20;80.80;;;;;;4957666;28;20042;-77
2022/03/10 09:09:25;;;;;;;;;;;10.00;72.60;;;;;;4937980;28;20436;-77
2022/03/10 09:11:51;;;;;;;;;;;10.40;77.10;;;;;;4950443;28;20724;-76
2022/03/10 09:14:17;;;;;;;;;;;10.60;74.70;;;;;;4951418;28;19936;-76
2022/03/10 09:16:42;;;;;;;;;;;10.60;73.70;;;;;;4965326;28;19924;-77
2022/03/10 09:19:08;;;;;;;;;;;10.00;68.20;;;;;;4959485;28;19936;-76
2022/03/10 09:21:34;;;;;;;;;;;10.60;74.50;;;;;;4955943;28;19933;-77
2022/03/10 09:23:59;;;;;;;;;;;10.90;74.00;;;;;;4959080;28;20406;-76
2022/03/10 09:26:25;;;;;;;;;;;10.90;70.20;;;;;;4938742;28;20334;-76
2022/03/10 09:28:51;;;;;;;;;;;11.10;72.70;;;;;;4941865;28;19948;-76
2022/03/10 09:31:17;;;;;;;;;;;11.10;71.50;;;;;;4935933;28;20004;-76
2022/03/10 09:33:44;;;;;;;;;;;11.40;71.50;;;;;;4955660;28;19971;-76
2022/03/10 09:36:09;;;;;;;;;;;11.40;70.40;;;;;;4961084;28;20691;-76
2022/03/10 09:38:35;;;;;;;;;;;11.60;67.80;;;;;;4957814;28;19935;-76
2022/03/10 09:41:00;;;;;;;;;;;11.70;69.30;;;;;;4959306;28;20808;-76
2022/03/10 09:43:27;;;;;;;;;;;11.00;68.30;;;;;;4941906;28;19929;-76
2022/03/10 09:45:53;;;;;;;;;;;11.40;69.80;;;;;;4943809;28;20704;-77
2022/03/10 09:48:19;;;;;;;;;;;11.00;67.30;;;;;;4938666;28;19979;-77
2022/03/10 09:50:48;;;;;;;;;;;11.10;64.90;;;;;;4938561;28;19928;-76
2022/03/10 09:53:15;;;;;;;;;;;11.60;68.70;;;;;;4944865;28;19935;-76
2022/03/10 09:55:41;;;;;;;;;;;12.10;65.40;;;;;;4957404;28;20394;-76
2022/03/10 09:58:07;;;;;;;;;;;12.30;65.90;;;;;;4960300;28;20610;-77
2022/03/10 10:00:33;;;;;;;;;;;12.30;63.30;;;;;;4963238;28;20397;-76
2022/03/10 10:02:58;;;;;;;;;;;12.30;63.40;;;;;;4956374;28;19929;-76
2022/03/10 10:05:26;;;;;;;;;;;12.40;63.50;;;;;;4938428;28;20477;-77
2022/03/10 10:08:00;;;;;;;;;;;12.80;65.00;;;;;;4958669;28;19928;-76
2022/03/10 10:10:27;;;;;;;;;;;13.00;63.90;;;;;;4920533;28;19936;-76
2022/03/10 10:12:52;;;;;;;;;;;12.60;59.00;;;;;;4954041;28;19925;-77
2022/03/10 10:15:18;;;;;;;;;;;12.60;61.40;;;;;;4942942;28;20680;-77
2022/03/10 10:17:44;;;;;;;;;;;13.00;60.40;;;;;;4955614;28;19943;-76
2022/03/10 10:20:10;;;;;;;;;;;12.80;59.90;;;;;;4956031;28;19929;-76
2022/03/10 10:22:36;;;;;;;;;;;13.00;60.30;;;;;;4940513;28;20288;-77
2022/03/10 10:25:05;;;;;;;;;;;12.80;56.20;;;;;;4955186;28;20340;-77
2022/03/10 10:27:33;;;;;;;;;;;13.10;58.10;;;;;;4959683;28;19939;-76
2022/03/10 10:30:03;;;;;;;;;;;13.30;58.60;;;;;;4938831;28;19929;-77
2022/03/10 10:32:29;;;;;;;;;;;13.50;59.20;;;;;;4939644;28;19929;-76
2022/03/10 10:35:06;;;;;;;;;;;13.60;58.60;;;;;;4958237;28;20365;-78
2022/03/10 10:37:32;;;;;;;;;;;13.50;58.80;;;;;;4940380;28;19929;-76
2022/03/10 10:39:58;;;;;;;;;;;13.50;58.40;;;;;;4932254;28;19928;-76
2022/03/10 10:42:31;;;;;;;;;;;13.80;56.70;;;;;;4957945;28;20278;-76
2022/03/10 10:44:59;;;;;;;;;;;13.60;55.70;;;;;;4935375;28;20727;-75
2022/03/10 10:47:27;;;;;;;;;;;13.90;57.30;;;;;;4956605;28;20257;-75
2022/03/10 10:50:00;;;;;;;;;;;14.10;55.50;;;;;;4936940;28;19933;-75
2022/03/10 10:52:35;;;;;;;;;;;13.60;54.20;;;;;;4955043;28;19929;-75
2022/03/10 10:55:06;;;;;;;;;;;14.00;56.00;;;;;;4955617;28;20014;-75
2022/03/10 10:57:34;;;;;;;;;;;13.80;56.00;;;;;;4938402;28;20008;-75
2022/03/10 11:00:10;;;;;;;;;;;13.50;53.50;;;;;;4960086;28;19940;-75
2022/03/10 11:02:43;;;;;;;;;;;13.80;54.30;;;;;;4970097;28;20464;-75
2022/03/10 11:05:11;;;;;;;;;;;13.70;55.20;;;;;;4938927;28;20373;-75
2022/03/10 11:07:37;;;;;;;;;;;13.90;53.80;;;;;;4939069;28;20267;-75
2022/03/10 11:10:03;;;;;;;;;;;14.10;54.50;;;;;;4956862;28;20829;-75
2022/03/10 11:12:29;;;;;;;;;;;14.40;54.30;;;;;;4942981;28;20683;-74
2022/03/10 11:14:55;;;;;;;;;;;13.80;49.60;;;;;;4960462;28;20066;-75
2022/03/10 11:17:22;;;;;;;;;;;14.20;52.70;;;;;;4942064;28;20302;-75
2022/03/10 11:19:50;;;;;;;;;;;14.30;52.00;;;;;;4933782;28;20685;-76
2022/03/10 11:22:24;;;;;;;;;;;14.60;52.20;;;;;;4936313;28;19929;-76
2022/03/10 11:24:59;;;;;;;;;;;14.30;51.40;;;;;;4938568;28;20039;-74
2022/03/10 11:27:31;;;;;;;;;;;14.50;51.30;;;;;;4935961;28;19964;-75
2022/03/10 11:30:00;;;;;;;;;;;14.60;48.90;;;;;;4937817;28;19967;-75
2022/03/10 11:32:29;;;;;;;;;;;14.80;51.00;;;;;;4960251;28;19929;-75
2022/03/10 11:34:58;;;;;;;;;;;14.40;48.70;;;;;;4937437;28;19929;-75
2022/03/10 11:37:45;;;;;;;;;;;14.60;51.60;;;;;;4953494;28;20072;-75
2022/03/10 11:40:29;;;;;;;;;;;14.90;50.20;;;;;;4934715;28;20876;-75
2022/03/10 11:43:01;;;;;;;;;;;15.10;50.40;;;;;;4934538;28;20245;-75
2022/03/10 11:45:28;;;;;;;;;;;15.30;50.70;;;;;;4932581;28;20760;-76
2022/03/10 11:47:53;;;;;;;;;;;15.40;51.10;;;;;;4939644;28;20322;-76
2022/03/10 11:50:22;;;;;;;;;;;15.60;50.90;;;;;;4956093;28;20732;-76
2022/03/10 11:52:53;;;;;;;;;;;15.50;50.70;;;;;;4949296;28;20714;-75
2022/03/10 11:55:20;;;;;;;;;;;15.10;49.80;;;;;;4953391;28;19929;-75
2022/03/10 11:57:54;;;;;;;;;;;14.90;50.80;;;;;;4951887;28;20022;-75
2022/03/10 12:00:44;;;;;;;;;;;15.40;50.60;;;;;;4935267;28;19952;-75
2022/03/10 12:03:25;;;;;;;;;;;15.60;50.80;;;;;;4929312;28;19928;-75
2022/03/10 12:05:51;;;;;;;;;;;15.60;50.60;;;;;;4959483;28;20222;-75
2022/03/10 12:08:17;;;;;;;;;;;15.40;49.20;;;;;;4932484;28;19928;-75
2022/03/10 12:10:43;;;;;;;;;;;15.40;50.80;;;;;;4951427;28;19936;-76
2022/03/10 12:13:29;;;;;;;;;;;15.20;48.30;;;;;;4933934;28;19951;-75
2022/03/10 12:15:56;;;;;;;;;;;15.40;51.60;;;;;;4942134;28;20338;-75
2022/03/10 12:18:24;;;;;;;;;;;15.60;48.20;;;;;;4951385;28;19928;-75
2022/03/10 12:20:53;;;;;;;;;;;15.90;51.70;;;;;;4919612;28;20712;-75
2022/03/10 12:23:21;;;;;;;;;;;15.80;50.00;;;;;;4957059;28;19939;-75
2022/03/10 12:25:53;;;;;;;;;;;16.10;50.70;;;;;;4936851;28;20549;-75
2022/03/10 12:28:21;;;;;;;;;;;16.30;51.20;;;;;;4954921;28;20842;-75
2022/03/10 12:30:47;;;;;;;;;;;16.00;51.00;;;;;;4934479;28;20051;-75
2022/03/10 12:33:12;;;;;;;;;;;16.10;50.20;;;;;;4954295;28;20387;-75
2022/03/10 12:35:40;;;;;;;;;;;15.90;48.70;;;;;;4954627;28;20825;-76
2022/03/10 12:38:06;;;;;;;;;;;15.90;49.50;;;;;;4923398;28;19928;-74
2022/03/10 12:40:33;;;;;;;;;;;16.50;52.40;;;;;;4960071;28;19929;-75
2022/03/10 12:43:00;;;;;;;;;;;16.50;48.80;;;;;;4939783;28;19928;-75
2022/03/10 12:45:26;;;;;;;;;;;16.40;50.70;;;;;;4941749;28;20484;-75
2022/03/10 12:47:58;;;;;;;;;;;15.70;47.30;;;;;;4935027;28;20731;-75
2022/03/10 12:50:24;;;;;;;;;;;15.80;50.00;;;;;;4943724;28;19929;-75
2022/03/10 12:52:49;;;;;;;;;;;16.40;51.00;;;;;;4934905;28;20534;-75
2022/03/10 12:55:24;;;;;;;;;;;16.20;51.10;;;;;;4954360;28;20720;-75
2022/03/10 12:57:50;;;;;;;;;;;16.50;49.90;;;;;;4938074;28;19928;-74
2022/03/10 13:00:17;;;;;;;;;;;16.60;49.40;;;;;;4936863;28;20139;-75
2022/03/10 13:02:43;;;;;;;;;;;16.60;49.70;;;;;;4959141;28;20528;-75
2022/03/10 13:05:09;;;;;;;;;;;16.80;49.00;;;;;;4935523;28;19951;-75
2022/03/10 13:07:35;;;;;;;;;;;16.70;48.30;;;;;;4955572;28;20089;-74
2022/03/10 13:10:04;;;;;;;;;;;16.40;48.10;;;;;;4956721;28;20400;-76
2022/03/10 13:12:32;;;;;;;;;;;16.80;49.10;;;;;;4935413;28;20344;-75
2022/03/10 13:14:59;;;;;;;;;;;17.10;50.00;;;;;;4936009;28;19929;-75
2022/03/10 13:17:32;;;;;;;;;;;16.80;49.00;;;;;;4957101;28;20006;-75
2022/03/10 13:19:57;;;;;;;;;;;16.80;49.60;;;;;;4959228;28;20028;-74
2022/03/10 13:22:23;;;;;;;;;;;16.90;49.90;;;;;;4949463;28;19929;-76
2022/03/10 13:24:52;;;;;;;;;;;16.80;48.10;;;;;;4930861;28;20642;-75
2022/03/10 13:27:21;;;;;;;;;;;16.20;48.70;;;;;;4953500;28;20668;-75
2022/03/10 13:29:47;;;;;;;;;;;16.30;47.40;;;;;;4938732;28;20724;-75
2022/03/10 13:32:13;;;;;;;;;;;16.10;46.00;;;;;;4936322;28;19950;-75
2022/03/10 13:34:39;;;;;;;;;;;16.20;47.30;;;;;;4927052;28;20035;-74
2022/03/10 13:37:07;;;;;;;;;;;16.50;48.30;;;;;;4956793;28;20286;-75
2022/03/10 13:39:32;;;;;;;;;;;16.80;48.20;;;;;;4951344;28;20055;-75
2022/03/10 13:41:58;;;;;;;;;;;17.00;48.60;;;;;;4938554;28;20311;-75
2022/03/10 13:44:27;;;;;;;;;;;16.80;47.90;;;;;;4934131;28;19929;-75
2022/03/10 13:47:02;;;;;;;;;;;17.00;48.70;;;;;;4955749;28;19929;-76
2022/03/10 13:49:28;;;;;;;;;;;16.90;48.30;;;;;;4950675;28;20663;-74
2022/03/10 13:51:55;;;;;;;;;;;17.10;48.80;;;;;;4937042;28;20092;-75
2022/03/10 13:54:21;;;;;;;;;;;17.20;47.30;;;;;;4954626;28;20261;-74
2022/03/10 13:56:48;;;;;;;;;;;17.00;47.70;;;;;;4934466;28;20095;-75
2022/03/10 13:59:15;;;;;;;;;;;17.30;47.00;;;;;;4938745;28;20902;-75
2022/03/10 14:01:44;;;;;;;;;;;17.30;45.60;;;;;;4942794;28;19983;-75
2022/03/10 14:04:10;;;;;;;;;;;17.40;48.50;;;;;;4956729;28;19935;-74
2022/03/10 14:06:46;;;;;;;;;;;17.40;48.50;;;;;;4937041;28;20298;-74
2022/03/10 14:09:16;;;;;;;;;;;17.40;47.70;;;;;;4937230;28;20468;-74
2022/03/10 14:11:42;;;;;;;;;;;17.30;46.40;;;;;;4937738;28;20738;-75
2022/03/10 14:14:08;;;;;;;;;;;17.00;47.00;;;;;;4961425;28;19935;-74
2022/03/10 14:16:34;;;;;;;;;;;17.30;47.00;;;;;;4955470;28;20683;-75
2022/03/10 14:19:02;;;;;;;;;;;17.40;46.40;;;;;;4936913;28;19956;-75
2022/03/10 14:21:28;;;;;;;;;;;17.30;47.20;;;;;;4934447;28;19929;-75
2022/03/10 14:23:54;;;;;;;;;;;17.30;46.10;;;;;;4939101;28;20254;-74
2022/03/10 14:26:21;;;;;;;;;;;17.30;46.80;;;;;;4938243;28;19928;-75
2022/03/10 14:28:47;;;;;;;;;;;17.30;46.20;;;;;;4952968;28;20292;-75